sensor_id;sensor_type;location;lat;lon;timestamp;temperature;humidity
34574;DHT22;20809;49.594;8.734;2022-12-18T00:01:25;-10.30;99.90
34574;DHT22;20809;49.594;8.734;2022-12-18T00:04:27;-10.30;99.90
34574;DHT22;20809;49.594;8.734;2022-12-18T00:07:27;-10.30;99.90
34574;DHT22;20809;49.594;8.734;2022-12-18T00:10:28;-10.30;99.90
34574;DHT22;20809;49.594;8.734;2022-12-18T00:13:29;-10.30;99.90
34574;DHT22;20809;49.594;8.734;2022-12-18T00:16:30;-10.50;99.90
34574;DHT22;20809;49.594;8.734;2022-12-18T00:19:35;-10.60;99.90
34574;DHT22;20809;49.594;8.734;2022-12-18T00:22:36;-10.50;99.90
34574;DHT22;20809;49.594;8.734;2022-12-18T00:25:37;-10.50;99.90
34574;DHT22;20809;49.594;8.734;2022-12-18T00:28:38;-10.60;99.90
34574;DHT22;20809;49.594;8.734;2022-12-18T00:31:39;-10.60;99.90
34574;DHT22;20809;49.594;8.734;2022-12-18T00:34:39;-10.60;99.90
34574;DHT22;20809;49.594;8.734;2022-12-18T00:37:40;-10.60;99.90
34574;DHT22;20809;49.594;8.734;2022-12-18T00:40:41;-10.50;99.90
34574;DHT22;20809;49.594;8.734;2022-12-18T00:43:41;-10.60;99.90
34574;DHT22;20809;49.594;8.734;2022-12-18T00:46:44;-10.60;99.90
34574;DHT22;20809;49.594;8.734;2022-12-18T00:49:45;-10.60;99.90
34574;DHT22;20809;49.594;8.734;2022-12-18T00:52:46;-10.70;99.90
34574;DHT22;20809;49.594;8.734;2022-12-18T00:55:47;-10.60;99.90
34574;DHT22;20809;49.594;8.734;2022-12-18T00:58:48;-10.70;99.90
34574;DHT22;20809;49.594;8.734;2022-12-18T01:01:49;-10.60;99.90
34574;DHT22;20809;49.594;8.734;2022-12-18T01:04:49;-10.60;99.90
34574;DHT22;20809;49.594;8.734;2022-12-18T01:07:50;-10.60;99.90
34574;DHT22;20809;49.594;8.734;2022-12-18T01:10:51;-10.60;99.90
34574;DHT22;20809;49.594;8.734;2022-12-18T01:13:53;-10.60;99.90
34574;DHT22;20809;49.594;8.734;2022-12-18T01:16:54;-10.60;99.90
34574;DHT22;20809;49.594;8.734;2022-12-18T01:19:54;-10.70;99.90
34574;DHT22;20809;49.594;8.734;2022-12-18T01:22:55;-10.70;99.90
34574;DHT22;20809;49.594;8.734;2022-12-18T01:25:56;-10.70;99.90
34574;DHT22;20809;49.594;8.734;2022-12-18T01:28:56;-10.80;99.90
34574;DHT22;20809;49.594;8.734;2022-12-18T01:31:57;-10.80;99.90
34574;DHT22;20809;49.594;8.734;2022-12-18T01:34:58;-10.80;99.90
34574;DHT22;20809;49.594;8.734;2022-12-18T01:37:59;-10.80;99.90
34574;DHT22;20809;49.594;8.734;2022-12-18T01:41:00;-10.90;99.90
34574;DHT22;20809;49.594;8.734;2022-12-18T01:44:01;-10.90;99.90
34574;DHT22;20809;49.594;8.734;2022-12-18T01:47:02;-10.90;99.90
34574;DHT22;20809;49.594;8.734;2022-12-18T01:53:22;-10.90;99.90
34574;DHT22;20809;49.594;8.734;2022-12-18T02:10:29;-11.00;99.90
34574;DHT22;20809;49.594;8.734;2022-12-18T02:13:46;-10.80;99.90
34574;DHT22;20809;49.594;8.734;2022-12-18T02:16:57;-10.80;99.90
34574;DHT22;20809;49.594;8.734;2022-12-18T02:20:14;-10.80;99.90
34574;DHT22;20809;49.594;8.734;2022-12-18T02:26:38;-10.80;99.90
34574;DHT22;20809;49.594;8.734;2022-12-18T02:29:48;-10.80;99.90
34574;DHT22;20809;49.594;8.734;2022-12-18T02:32:52;-10.80;99.90
34574;DHT22;20809;49.594;8.734;2022-12-18T02:35:54;-10.90;99.90
34574;DHT22;20809;49.594;8.734;2022-12-18T02:38:58;-11.00;99.90
34574;DHT22;20809;49.594;8.734;2022-12-18T02:42:00;-11.00;99.90
34574;DHT22;20809;49.594;8.734;2022-12-18T02:45:08;-11.00;99.90
34574;DHT22;20809;49.594;8.734;2022-12-18T02:48:09;-11.00;99.90
34574;DHT22;20809;49.594;8.734;2022-12-18T02:51:22;-11.00;99.90
34574;DHT22;20809;49.594;8.734;2022-12-18T02:57:32;-11.00;99.90
34574;DHT22;20809;49.594;8.734;2022-12-18T03:01:01;-11.10;99.90
34574;DHT22;20809;49.594;8.734;2022-12-18T03:04:53;-11.10;99.90
34574;DHT22;20809;49.594;8.734;2022-12-18T03:07:42;-11.10;99.90
34574;DHT22;20809;49.594;8.734;2022-12-18T03:11:11;-11.10;99.90
34574;DHT22;20809;49.594;8.734;2022-12-18T03:14:14;-11.10;99.90
34574;DHT22;20809;49.594;8.734;2022-12-18T03:17:17;-11.10;99.90
34574;DHT22;20809;49.594;8.734;2022-12-18T03:20:22;-11.10;99.90
34574;DHT22;20809;49.594;8.734;2022-12-18T03:23:29;-11.10;99.90
34574;DHT22;20809;49.594;8.734;2022-12-18T03:26:30;-11.10;99.90
34574;DHT22;20809;49.594;8.734;2022-12-18T03:29:42;-11.00;99.90
34574;DHT22;20809;49.594;8.734;2022-12-18T03:33:30;-11.00;99.90
34574;DHT22;20809;49.594;8.734;2022-12-18T03:36:32;-11.00;99.90
34574;DHT22;20809;49.594;8.734;2022-12-18T03:39:34;-11.00;99.90
34574;DHT22;20809;49.594;8.734;2022-12-18T03:42:51;-11.10;99.90
34574;DHT22;20809;49.594;8.734;2022-12-18T03:46:11;-11.20;99.90
34574;DHT22;20809;49.594;8.734;2022-12-18T03:49:29;-11.20;99.90
34574;DHT22;20809;49.594;8.734;2022-12-18T03:52:57;-11.10;99.90
34574;DHT22;20809;49.594;8.734;2022-12-18T03:56:01;-11.20;99.90
34574;DHT22;20809;49.594;8.734;2022-12-18T03:59:03;-11.30;99.90
34574;DHT22;20809;49.594;8.734;2022-12-18T04:02:07;-11.30;99.90
34574;DHT22;20809;49.594;8.734;2022-12-18T04:05:12;-11.30;99.90
34574;DHT22;20809;49.594;8.734;2022-12-18T04:08:14;-11.30;99.90
34574;DHT22;20809;49.594;8.734;2022-12-18T04:11:21;-11.30;99.90
34574;DHT22;20809;49.594;8.734;2022-12-18T04:14:22;-11.30;99.90
34574;DHT22;20809;49.594;8.734;2022-12-18T04:17:23;-11.30;99.90
34574;DHT22;20809;49.594;8.734;2022-12-18T04:20:24;-11.20;99.90
34574;DHT22;20809;49.594;8.734;2022-12-18T04:23:25;-11.20;99.90
34574;DHT22;20809;49.594;8.734;2022-12-18T04:26:26;-11.20;99.90
34574;DHT22;20809;49.594;8.734;2022-12-18T04:29:26;-11.20;99.90
34574;DHT22;20809;49.594;8.734;2022-12-18T04:32:29;-11.20;99.90
34574;DHT22;20809;49.594;8.734;2022-12-18T04:35:31;-11.30;99.90
34574;DHT22;20809;49.594;8.734;2022-12-18T04:38:31;-11.30;99.90
34574;DHT22;20809;49.594;8.734;2022-12-18T04:41:32;-11.30;99.90
34574;DHT22;20809;49.594;8.734;2022-12-18T04:44:33;-11.30;99.90
34574;DHT22;20809;49.594;8.734;2022-12-18T04:47:34;-11.30;99.90
34574;DHT22;20809;49.594;8.734;2022-12-18T04:50:35;-11.30;99.90
34574;DHT22;20809;49.594;8.734;2022-12-18T04:53:36;-11.30;99.90
34574;DHT22;20809;49.594;8.734;2022-12-18T04:56:37;-11.40;99.90
34574;DHT22;20809;49.594;8.734;2022-12-18T04:59:38;-11.40;99.90
34574;DHT22;20809;49.594;8.734;2022-12-18T05:02:39;-11.40;99.90
34574;DHT22;20809;49.594;8.734;2022-12-18T05:05:39;-11.40;99.90
34574;DHT22;20809;49.594;8.734;2022-12-18T05:08:40;-11.30;99.90
34574;DHT22;20809;49.594;8.734;2022-12-18T05:11:41;-11.30;99.90
34574;DHT22;20809;49.594;8.734;2022-12-18T05:14:42;-11.20;99.90
34574;DHT22;20809;49.594;8.734;2022-12-18T05:17:43;-11.10;99.90
34574;DHT22;20809;49.594;8.734;2022-12-18T05:20:45;-11.20;99.90
34574;DHT22;20809;49.594;8.734;2022-12-18T05:23:52;-11.10;99.90
34574;DHT22;20809;49.594;8.734;2022-12-18T05:26:53;-11.00;99.90
34574;DHT22;20809;49.594;8.734;2022-12-18T05:30:00;-11.00;99.90
34574;DHT22;20809;49.594;8.734;2022-12-18T05:33:00;-11.10;99.90
34574;DHT22;20809;49.594;8.734;2022-12-18T05:36:03;-11.10;99.90
34574;DHT22;20809;49.594;8.734;2022-12-18T05:39:04;-11.10;99.90
34574;DHT22;20809;49.594;8.734;2022-12-18T05:42:05;-11.10;99.90
34574;DHT22;20809;49.594;8.734;2022-12-18T05:45:06;-11.10;99.90
34574;DHT22;20809;49.594;8.734;2022-12-18T05:48:46;-11.20;99.90
34574;DHT22;20809;49.594;8.734;2022-12-18T05:51:48;-11.20;99.90
34574;DHT22;20809;49.594;8.734;2022-12-18T05:54:49;-11.10;99.90
34574;DHT22;20809;49.594;8.734;2022-12-18T05:57:50;-11.10;99.90
34574;DHT22;20809;49.594;8.734;2022-12-18T06:00:50;-11.20;99.90
34574;DHT22;20809;49.594;8.734;2022-12-18T06:03:54;-11.30;99.90
34574;DHT22;20809;49.594;8.734;2022-12-18T06:06:55;-11.20;99.90
34574;DHT22;20809;49.594;8.734;2022-12-18T06:09:56;-11.20;99.90
34574;DHT22;20809;49.594;8.734;2022-12-18T06:13:00;-11.10;99.90
34574;DHT22;20809;49.594;8.734;2022-12-18T06:16:05;-11.10;99.90
34574;DHT22;20809;49.594;8.734;2022-12-18T06:19:06;-11.10;99.90
34574;DHT22;20809;49.594;8.734;2022-12-18T06:22:07;-11.10;99.90
34574;DHT22;20809;49.594;8.734;2022-12-18T06:25:08;-11.10;99.90
34574;DHT22;20809;49.594;8.734;2022-12-18T06:28:09;-11.00;99.90
34574;DHT22;20809;49.594;8.734;2022-12-18T06:31:11;-11.00;99.90
34574;DHT22;20809;49.594;8.734;2022-12-18T06:34:12;-10.90;99.90
34574;DHT22;20809;49.594;8.734;2022-12-18T06:37:13;-10.80;99.90
34574;DHT22;20809;49.594;8.734;2022-12-18T06:40:14;-10.80;99.90
34574;DHT22;20809;49.594;8.734;2022-12-18T06:43:15;-10.80;99.90
34574;DHT22;20809;49.594;8.734;2022-12-18T06:46:18;-10.70;99.90
34574;DHT22;20809;49.594;8.734;2022-12-18T06:49:22;-10.70;99.90
34574;DHT22;20809;49.594;8.734;2022-12-18T06:56:07;-10.80;99.90
34574;DHT22;20809;49.594;8.734;2022-12-18T06:59:12;-10.90;99.90
34574;DHT22;20809;49.594;8.734;2022-12-18T07:02:16;-10.90;99.90
34574;DHT22;20809;49.594;8.734;2022-12-18T07:05:18;-10.90;99.90
34574;DHT22;20809;49.594;8.734;2022-12-18T07:08:21;-10.90;99.90
34574;DHT22;20809;49.594;8.734;2022-12-18T07:11:23;-10.80;99.90
34574;DHT22;20809;49.594;8.734;2022-12-18T07:14:24;-10.70;99.90
34574;DHT22;20809;49.594;8.734;2022-12-18T07:17:25;-10.60;99.90
34574;DHT22;20809;49.594;8.734;2022-12-18T07:20:29;-10.70;99.90
34574;DHT22;20809;49.594;8.734;2022-12-18T07:23:30;-10.60;99.90
34574;DHT22;20809;49.594;8.734;2022-12-18T07:26:38;-10.70;99.90
34574;DHT22;20809;49.594;8.734;2022-12-18T07:29:39;-10.80;99.90
34574;DHT22;20809;49.594;8.734;2022-12-18T07:32:46;-10.80;99.90
34574;DHT22;20809;49.594;8.734;2022-12-18T07:36:16;-10.70;99.90
34574;DHT22;20809;49.594;8.734;2022-12-18T07:39:20;-10.70;99.90
34574;DHT22;20809;49.594;8.734;2022-12-18T07:42:21;-10.60;99.90
34574;DHT22;20809;49.594;8.734;2022-12-18T07:45:32;-10.60;99.90
34574;DHT22;20809;49.594;8.734;2022-12-18T07:48:33;-10.60;99.90
34574;DHT22;20809;49.594;8.734;2022-12-18T07:51:37;-10.60;99.90
34574;DHT22;20809;49.594;8.734;2022-12-18T07:54:38;-10.60;99.90
34574;DHT22;20809;49.594;8.734;2022-12-18T07:57:43;-10.60;99.90
34574;DHT22;20809;49.594;8.734;2022-12-18T08:00:44;-10.80;99.90
34574;DHT22;20809;49.594;8.734;2022-12-18T08:03:48;-10.80;99.90
34574;DHT22;20809;49.594;8.734;2022-12-18T08:06:58;-10.80;99.90
34574;DHT22;20809;49.594;8.734;2022-12-18T08:14:13;-10.80;99.90
34574;DHT22;20809;49.594;8.734;2022-12-18T08:17:17;-10.70;99.90
34574;DHT22;20809;49.594;8.734;2022-12-18T08:20:22;-10.50;99.90
34574;DHT22;20809;49.594;8.734;2022-12-18T08:23:28;-10.50;99.90
34574;DHT22;20809;49.594;8.734;2022-12-18T08:26:30;-10.30;99.90
34574;DHT22;20809;49.594;8.734;2022-12-18T08:29:34;-10.20;99.90
34574;DHT22;20809;49.594;8.734;2022-12-18T08:32:36;-10.10;99.90
34574;DHT22;20809;49.594;8.734;2022-12-18T08:38:53;-9.80;99.90
34574;DHT22;20809;49.594;8.734;2022-12-18T08:41:57;-9.60;99.90
34574;DHT22;20809;49.594;8.734;2022-12-18T08:45:17;-9.50;99.90
34574;DHT22;20809;49.594;8.734;2022-12-18T08:48:21;-9.30;99.90
34574;DHT22;20809;49.594;8.734;2022-12-18T08:51:21;-9.30;99.90
34574;DHT22;20809;49.594;8.734;2022-12-18T08:54:28;-9.10;99.90
34574;DHT22;20809;49.594;8.734;2022-12-18T08:57:29;-8.90;99.90
34574;DHT22;20809;49.594;8.734;2022-12-18T09:00:32;-8.40;99.90
34574;DHT22;20809;49.594;8.734;2022-12-18T09:03:33;-7.80;99.90
34574;DHT22;20809;49.594;8.734;2022-12-18T09:06:36;-7.10;99.90
34574;DHT22;20809;49.594;8.734;2022-12-18T09:09:43;-6.50;99.90
34574;DHT22;20809;49.594;8.734;2022-12-18T09:12:44;-6.00;99.90
34574;DHT22;20809;49.594;8.734;2022-12-18T09:15:53;-5.90;99.90
34574;DHT22;20809;49.594;8.734;2022-12-18T09:19:00;-6.30;99.90
34574;DHT22;20809;49.594;8.734;2022-12-18T09:22:04;-6.90;99.90
34574;DHT22;20809;49.594;8.734;2022-12-18T09:25:10;-7.10;99.90
34574;DHT22;20809;49.594;8.734;2022-12-18T09:28:20;-7.20;99.90
34574;DHT22;20809;49.594;8.734;2022-12-18T09:31:23;-7.20;99.90
34574;DHT22;20809;49.594;8.734;2022-12-18T09:34:25;-7.30;99.90
34574;DHT22;20809;49.594;8.734;2022-12-18T09:37:36;-7.30;99.90
34574;DHT22;20809;49.594;8.734;2022-12-18T09:40:43;-7.20;99.90
34574;DHT22;20809;49.594;8.734;2022-12-18T09:43:54;-7.00;99.90
34574;DHT22;20809;49.594;8.734;2022-12-18T09:50:04;-6.20;99.90
34574;DHT22;20809;49.594;8.734;2022-12-18T09:53:12;-5.80;99.90
34574;DHT22;20809;49.594;8.734;2022-12-18T09:56:17;-5.40;99.90
34574;DHT22;20809;49.594;8.734;2022-12-18T09:59:44;-5.00;99.90
34574;DHT22;20809;49.594;8.734;2022-12-18T10:02:43;-4.70;99.90
34574;DHT22;20809;49.594;8.734;2022-12-18T10:09:45;-4.40;99.90
34574;DHT22;20809;49.594;8.734;2022-12-18T10:26:10;-4.10;99.90
34574;DHT22;20809;49.594;8.734;2022-12-18T10:29:12;-3.90;99.90
34574;DHT22;20809;49.594;8.734;2022-12-18T10:32:20;-3.70;99.90
34574;DHT22;20809;49.594;8.734;2022-12-18T10:35:38;-3.50;99.90
34574;DHT22;20809;49.594;8.734;2022-12-18T10:39:23;-3.30;99.90
34574;DHT22;20809;49.594;8.734;2022-12-18T10:42:24;-3.00;99.90
34574;DHT22;20809;49.594;8.734;2022-12-18T10:45:25;-2.80;99.90
34574;DHT22;20809;49.594;8.734;2022-12-18T10:48:27;-2.60;99.90
34574;DHT22;20809;49.594;8.734;2022-12-18T10:51:33;-2.50;99.90
34574;DHT22;20809;49.594;8.734;2022-12-18T10:54:35;-2.30;99.90
34574;DHT22;20809;49.594;8.734;2022-12-18T10:57:38;-2.20;99.90
34574;DHT22;20809;49.594;8.734;2022-12-18T11:00:41;-2.20;99.90
34574;DHT22;20809;49.594;8.734;2022-12-18T11:03:46;-2.00;99.90
34574;DHT22;20809;49.594;8.734;2022-12-18T11:10:00;-1.80;99.90
34574;DHT22;20809;49.594;8.734;2022-12-18T11:13:19;-1.60;99.90
34574;DHT22;20809;49.594;8.734;2022-12-18T11:16:21;-1.50;99.90
34574;DHT22;20809;49.594;8.734;2022-12-18T11:22:31;-1.30;99.90
34574;DHT22;20809;49.594;8.734;2022-12-18T11:25:36;-1.20;99.90
34574;DHT22;20809;49.594;8.734;2022-12-18T11:28:46;-1.10;99.90
34574;DHT22;20809;49.594;8.734;2022-12-18T11:31:48;-1.10;99.90
34574;DHT22;20809;49.594;8.734;2022-12-18T11:34:53;-1.00;99.90
34574;DHT22;20809;49.594;8.734;2022-12-18T11:38:04;-1.00;99.90
34574;DHT22;20809;49.594;8.734;2022-12-18T11:44:57;-1.00;99.90
34574;DHT22;20809;49.594;8.734;2022-12-18T11:48:14;-0.80;99.90
34574;DHT22;20809;49.594;8.734;2022-12-18T11:51:48;-0.70;99.90
34574;DHT22;20809;49.594;8.734;2022-12-18T11:54:58;-0.60;99.90
34574;DHT22;20809;49.594;8.734;2022-12-18T11:58:26;-0.60;99.90
34574;DHT22;20809;49.594;8.734;2022-12-18T12:01:38;-0.60;99.90
34574;DHT22;20809;49.594;8.734;2022-12-18T12:05:21;-0.80;99.90
34574;DHT22;20809;49.594;8.734;2022-12-18T12:11:43;-0.80;99.90
34574;DHT22;20809;49.594;8.734;2022-12-18T12:28:47;-0.60;99.90
34574;DHT22;20809;49.594;8.734;2022-12-18T12:32:11;-0.50;99.90
34574;DHT22;20809;49.594;8.734;2022-12-18T12:38:45;-0.60;99.90
34574;DHT22;20809;49.594;8.734;2022-12-18T12:41:50;-0.40;99.90
34574;DHT22;20809;49.594;8.734;2022-12-18T12:45:19;-0.40;99.90
34574;DHT22;20809;49.594;8.734;2022-12-18T12:48:46;-0.50;99.90
34574;DHT22;20809;49.594;8.734;2022-12-18T12:52:11;-0.40;99.90
34574;DHT22;20809;49.594;8.734;2022-12-18T12:55:19;-0.50;99.90
34574;DHT22;20809;49.594;8.734;2022-12-18T13:01:47;-0.30;99.90
34574;DHT22;20809;49.594;8.734;2022-12-18T13:05:05;-0.20;99.90
34574;DHT22;20809;49.594;8.734;2022-12-18T13:08:11;-0.30;99.90
34574;DHT22;20809;49.594;8.734;2022-12-18T13:11:35;-0.50;99.90
34574;DHT22;20809;49.594;8.734;2022-12-18T13:18:35;-1.00;99.90
34574;DHT22;20809;49.594;8.734;2022-12-18T13:21:38;-1.10;99.90
34574;DHT22;20809;49.594;8.734;2022-12-18T13:24:39;-1.00;99.90
34574;DHT22;20809;49.594;8.734;2022-12-18T13:30:52;-1.00;99.90
34574;DHT22;20809;49.594;8.734;2022-12-18T13:34:22;-1.00;99.90
34574;DHT22;20809;49.594;8.734;2022-12-18T13:37:44;-1.00;99.90
34574;DHT22;20809;49.594;8.734;2022-12-18T13:40:56;-1.00;99.90
34574;DHT22;20809;49.594;8.734;2022-12-18T13:44:22;-1.00;99.90
34574;DHT22;20809;49.594;8.734;2022-12-18T13:47:36;-1.10;99.90
34574;DHT22;20809;49.594;8.734;2022-12-18T13:50:40;-1.10;99.90
34574;DHT22;20809;49.594;8.734;2022-12-18T13:53:51;-1.10;99.90
34574;DHT22;20809;49.594;8.734;2022-12-18T13:56:53;-1.20;99.90
34574;DHT22;20809;49.594;8.734;2022-12-18T13:59:55;-1.30;99.90
34574;DHT22;20809;49.594;8.734;2022-12-18T14:02:59;-1.40;99.90
34574;DHT22;20809;49.594;8.734;2022-12-18T14:06:06;-1.50;99.90
34574;DHT22;20809;49.594;8.734;2022-12-18T14:09:13;-1.50;99.90
34574;DHT22;20809;49.594;8.734;2022-12-18T14:12:31;-1.60;99.90
34574;DHT22;20809;49.594;8.734;2022-12-18T14:15:54;-1.60;99.90
34574;DHT22;20809;49.594;8.734;2022-12-18T14:18:57;-1.70;99.90
34574;DHT22;20809;49.594;8.734;2022-12-18T14:22:04;-1.70;99.90
34574;DHT22;20809;49.594;8.734;2022-12-18T14:25:20;-1.70;99.90
34574;DHT22;20809;49.594;8.734;2022-12-18T14:28:21;-1.80;99.90
34574;DHT22;20809;49.594;8.734;2022-12-18T14:31:27;-1.80;99.90
34574;DHT22;20809;49.594;8.734;2022-12-18T14:34:31;-1.90;99.90
34574;DHT22;20809;49.594;8.734;2022-12-18T14:37:31;-1.90;99.90
34574;DHT22;20809;49.594;8.734;2022-12-18T14:40:32;-1.90;99.90
34574;DHT22;20809;49.594;8.734;2022-12-18T14:43:35;-2.00;99.90
34574;DHT22;20809;49.594;8.734;2022-12-18T14:46:39;-2.00;99.90
34574;DHT22;20809;49.594;8.734;2022-12-18T14:49:43;-2.00;99.90
34574;DHT22;20809;49.594;8.734;2022-12-18T14:52:45;-2.10;99.90
34574;DHT22;20809;49.594;8.734;2022-12-18T14:55:47;-2.10;99.90
34574;DHT22;20809;49.594;8.734;2022-12-18T14:58:57;-2.10;99.90
34574;DHT22;20809;49.594;8.734;2022-12-18T15:02:04;-2.20;99.90
34574;DHT22;20809;49.594;8.734;2022-12-18T15:05:17;-2.30;99.90
34574;DHT22;20809;49.594;8.734;2022-12-18T15:08:35;-2.30;99.90
34574;DHT22;20809;49.594;8.734;2022-12-18T15:14:41;-2.40;99.90
34574;DHT22;20809;49.594;8.734;2022-12-18T15:17:42;-2.40;99.90
34574;DHT22;20809;49.594;8.734;2022-12-18T15:26:44;-2.60;99.90
34574;DHT22;20809;49.594;8.734;2022-12-18T15:30:03;-2.70;99.90
34574;DHT22;20809;49.594;8.734;2022-12-18T15:33:23;-2.70;99.90
34574;DHT22;20809;49.594;8.734;2022-12-18T15:36:25;-2.70;99.90
34574;DHT22;20809;49.594;8.734;2022-12-18T15:39:30;-2.60;99.90
34574;DHT22;20809;49.594;8.734;2022-12-18T15:42:30;-2.60;99.90
34574;DHT22;20809;49.594;8.734;2022-12-18T15:45:50;-2.70;99.90
34574;DHT22;20809;49.594;8.734;2022-12-18T15:48:53;-2.70;99.90
34574;DHT22;20809;49.594;8.734;2022-12-18T15:51:57;-2.60;99.90
34574;DHT22;20809;49.594;8.734;2022-12-18T15:54:59;-2.60;99.90
34574;DHT22;20809;49.594;8.734;2022-12-18T15:58:18;-2.60;99.90
34574;DHT22;20809;49.594;8.734;2022-12-18T16:01:26;-2.60;99.90
34574;DHT22;20809;49.594;8.734;2022-12-18T16:04:27;-2.60;99.90
34574;DHT22;20809;49.594;8.734;2022-12-18T16:07:28;-2.60;99.90
34574;DHT22;20809;49.594;8.734;2022-12-18T16:10:29;-2.50;99.90
34574;DHT22;20809;49.594;8.734;2022-12-18T16:13:29;-2.50;99.90
34574;DHT22;20809;49.594;8.734;2022-12-18T16:16:30;-2.60;99.90
34574;DHT22;20809;49.594;8.734;2022-12-18T16:19:31;-2.50;99.90
34574;DHT22;20809;49.594;8.734;2022-12-18T16:22:32;-2.50;99.90
34574;DHT22;20809;49.594;8.734;2022-12-18T16:25:33;-2.50;99.90
34574;DHT22;20809;49.594;8.734;2022-12-18T16:28:33;-2.40;99.90
34574;DHT22;20809;49.594;8.734;2022-12-18T16:31:34;-2.30;99.90
34574;DHT22;20809;49.594;8.734;2022-12-18T16:34:35;-2.30;99.90
34574;DHT22;20809;49.594;8.734;2022-12-18T16:37:36;-2.30;99.90
34574;DHT22;20809;49.594;8.734;2022-12-18T16:40:38;-2.30;99.90
34574;DHT22;20809;49.594;8.734;2022-12-18T16:43:59;-2.30;99.90
34574;DHT22;20809;49.594;8.734;2022-12-18T16:47:00;-2.30;99.90
34574;DHT22;20809;49.594;8.734;2022-12-18T16:50:03;-2.20;99.90
34574;DHT22;20809;49.594;8.734;2022-12-18T16:53:04;-2.30;99.90
34574;DHT22;20809;49.594;8.734;2022-12-18T16:56:04;-2.30;99.90
34574;DHT22;20809;49.594;8.734;2022-12-18T16:59:05;-2.30;99.90
34574;DHT22;20809;49.594;8.734;2022-12-18T17:02:28;-2.20;99.90
34574;DHT22;20809;49.594;8.734;2022-12-18T17:05:29;-2.20;99.90
34574;DHT22;20809;49.594;8.734;2022-12-18T17:08:30;-2.20;99.90
34574;DHT22;20809;49.594;8.734;2022-12-18T17:11:31;-2.30;99.90
34574;DHT22;20809;49.594;8.734;2022-12-18T17:14:33;-2.30;99.90
34574;DHT22;20809;49.594;8.734;2022-12-18T17:17:34;-2.30;99.90
34574;DHT22;20809;49.594;8.734;2022-12-18T17:20:35;-2.20;99.90
34574;DHT22;20809;49.594;8.734;2022-12-18T17:23:37;-2.20;99.90
34574;DHT22;20809;49.594;8.734;2022-12-18T17:26:37;-2.10;99.90
34574;DHT22;20809;49.594;8.734;2022-12-18T17:29:38;-2.10;99.90
34574;DHT22;20809;49.594;8.734;2022-12-18T17:32:39;-2.20;99.90
34574;DHT22;20809;49.594;8.734;2022-12-18T17:35:40;-2.10;99.90
34574;DHT22;20809;49.594;8.734;2022-12-18T17:38:41;-2.10;99.90
34574;DHT22;20809;49.594;8.734;2022-12-18T17:41:42;-2.10;99.90
34574;DHT22;20809;49.594;8.734;2022-12-18T17:44:43;-2.00;99.90
34574;DHT22;20809;49.594;8.734;2022-12-18T17:47:44;-2.10;99.90
34574;DHT22;20809;49.594;8.734;2022-12-18T17:50:47;-2.10;99.90
34574;DHT22;20809;49.594;8.734;2022-12-18T17:53:48;-2.10;99.90
34574;DHT22;20809;49.594;8.734;2022-12-18T17:56:49;-2.10;99.90
34574;DHT22;20809;49.594;8.734;2022-12-18T17:59:49;-2.10;99.90
34574;DHT22;20809;49.594;8.734;2022-12-18T18:02:50;-2.10;99.90
34574;DHT22;20809;49.594;8.734;2022-12-18T18:05:55;-2.20;99.90
34574;DHT22;20809;49.594;8.734;2022-12-18T18:08:56;-2.20;99.90
34574;DHT22;20809;49.594;8.734;2022-12-18T18:11:57;-2.20;99.90
34574;DHT22;20809;49.594;8.734;2022-12-18T18:15:16;-2.10;99.90
34574;DHT22;20809;49.594;8.734;2022-12-18T18:18:17;-2.10;99.90
34574;DHT22;20809;49.594;8.734;2022-12-18T18:21:17;-2.10;99.90
34574;DHT22;20809;49.594;8.734;2022-12-18T18:24:21;-2.10;99.90
34574;DHT22;20809;49.594;8.734;2022-12-18T18:27:25;-2.00;99.90
34574;DHT22;20809;49.594;8.734;2022-12-18T18:30:26;-1.90;99.90
34574;DHT22;20809;49.594;8.734;2022-12-18T18:33:26;-1.90;99.90
34574;DHT22;20809;49.594;8.734;2022-12-18T18:36:27;-1.90;99.90
34574;DHT22;20809;49.594;8.734;2022-12-18T18:39:28;-1.80;99.90
34574;DHT22;20809;49.594;8.734;2022-12-18T18:42:29;-1.70;99.90
34574;DHT22;20809;49.594;8.734;2022-12-18T18:48:40;-1.70;99.90
34574;DHT22;20809;49.594;8.734;2022-12-18T18:51:41;-1.70;99.90
34574;DHT22;20809;49.594;8.734;2022-12-18T18:54:42;-1.60;99.90
34574;DHT22;20809;49.594;8.734;2022-12-18T18:57:43;-1.60;99.90
34574;DHT22;20809;49.594;8.734;2022-12-18T19:00:43;-1.60;99.90
34574;DHT22;20809;49.594;8.734;2022-12-18T19:03:45;-1.60;99.90
34574;DHT22;20809;49.594;8.734;2022-12-18T19:06:46;-1.60;99.90
34574;DHT22;20809;49.594;8.734;2022-12-18T19:09:47;-1.60;99.90
34574;DHT22;20809;49.594;8.734;2022-12-18T19:12:51;-1.60;99.90
34574;DHT22;20809;49.594;8.734;2022-12-18T19:16:10;-1.70;99.90
34574;DHT22;20809;49.594;8.734;2022-12-18T19:19:11;-1.60;99.90
34574;DHT22;20809;49.594;8.734;2022-12-18T19:22:12;-1.70;99.90
34574;DHT22;20809;49.594;8.734;2022-12-18T19:25:13;-1.70;99.90
34574;DHT22;20809;49.594;8.734;2022-12-18T19:28:14;-1.70;99.90
34574;DHT22;20809;49.594;8.734;2022-12-18T19:31:16;-1.80;99.90
34574;DHT22;20809;49.594;8.734;2022-12-18T19:34:17;-1.90;99.90
34574;DHT22;20809;49.594;8.734;2022-12-18T19:37:18;-2.00;99.90
34574;DHT22;20809;49.594;8.734;2022-12-18T19:40:18;-2.00;99.90
34574;DHT22;20809;49.594;8.734;2022-12-18T19:43:19;-1.90;99.90
34574;DHT22;20809;49.594;8.734;2022-12-18T19:46:21;-1.80;99.90
34574;DHT22;20809;49.594;8.734;2022-12-18T19:49:22;-1.70;99.90
34574;DHT22;20809;49.594;8.734;2022-12-18T19:52:23;-1.80;99.90
34574;DHT22;20809;49.594;8.734;2022-12-18T19:55:23;-1.80;99.90
34574;DHT22;20809;49.594;8.734;2022-12-18T19:58:28;-1.90;99.90
34574;DHT22;20809;49.594;8.734;2022-12-18T20:01:29;-1.90;99.90
34574;DHT22;20809;49.594;8.734;2022-12-18T20:04:30;-1.90;99.90
34574;DHT22;20809;49.594;8.734;2022-12-18T20:07:31;-1.90;99.90
34574;DHT22;20809;49.594;8.734;2022-12-18T20:10:32;-2.00;99.90
34574;DHT22;20809;49.594;8.734;2022-12-18T20:13:33;-2.00;99.90
34574;DHT22;20809;49.594;8.734;2022-12-18T20:16:33;-2.10;99.90
34574;DHT22;20809;49.594;8.734;2022-12-18T20:19:34;-2.10;99.90
34574;DHT22;20809;49.594;8.734;2022-12-18T20:22:35;-2.10;99.90
34574;DHT22;20809;49.594;8.734;2022-12-18T20:25:37;-2.10;99.90
34574;DHT22;20809;49.594;8.734;2022-12-18T20:28:38;-2.20;99.90
34574;DHT22;20809;49.594;8.734;2022-12-18T20:31:39;-2.10;99.90
34574;DHT22;20809;49.594;8.734;2022-12-18T20:34:40;-2.20;99.90
34574;DHT22;20809;49.594;8.734;2022-12-18T20:37:41;-2.20;99.90
34574;DHT22;20809;49.594;8.734;2022-12-18T20:40:41;-2.30;99.90
34574;DHT22;20809;49.594;8.734;2022-12-18T20:43:42;-2.30;99.90
34574;DHT22;20809;49.594;8.734;2022-12-18T20:46:44;-2.30;99.90
34574;DHT22;20809;49.594;8.734;2022-12-18T20:49:45;-2.40;99.90
34574;DHT22;20809;49.594;8.734;2022-12-18T20:52:47;-2.40;99.90
34574;DHT22;20809;49.594;8.734;2022-12-18T20:55:48;-2.60;99.90
34574;DHT22;20809;49.594;8.734;2022-12-18T20:58:49;-2.50;99.90
34574;DHT22;20809;49.594;8.734;2022-12-18T21:01:50;-2.50;99.90
34574;DHT22;20809;49.594;8.734;2022-12-18T21:05:01;-2.50;99.90
34574;DHT22;20809;49.594;8.734;2022-12-18T21:08:13;-2.60;99.90
34574;DHT22;20809;49.594;8.734;2022-12-18T21:14:37;-2.40;99.90